Marlboro, Maryland
Current Conditions -  °F | °C
As of 10:55 PM on Thursday 18 Dec 2014 (Local Time) from KADW Reporting Station
Overcast Overcast  
Wind Chill: 27°   Ceiling: 11000
Heat Index: 36°   Visibility: 10mi
Dew Point: 21°   Wind: 13mph
Humidity: 56%   Direction: 320°NW
Pressure: 30.1"   Gusts: NA
Location:  38.78°N, 76.7676°W
Report Text: KADW 190355Z 32011KT 10SM OVC110 02/M06 A3010 RMK AO2A SLP199
Loading
Personal Weather Stations






























Interactive Weather Map New forecast layout! Learn more

10-Day Weather Forecast

Advertisements
Track Severe Weather on mobile